KBZN/BZN METAR and TAF weather

Enter ICAO airport designator
Station Type Date Time Source
KBZN METAR 2021/01/17 19:56 UTC NOAA

KBZN 171956Z 00000KT 9SM -SN OVC060 01/M03 A2998 RMK AO2 SNB23 SLP184 P0000 T00111033


Station Type Date Time Source
KBZN Decoded METAR 2021/01/17 19:56 UTC NOAA

BOZEMAN GALLATIN FIELD, MT, United States (KBZN) 45-47N 111-09W 1361M
Jan 17, 2021 - 02:56 PM EST / 2021.01.17 1956 UTC
Wind: Calm:0
Visibility: 9 mile(s):0
Sky conditions: overcast
Weather: light snow
Precipitation last hour: A trace
Temperature: 34.0 F (1.1 C)
Dew Point: 26.1 F (-3.3 C)
Relative Humidity: 72%
Pressure (altimeter): 29.98 in. Hg (1015 hPa)
ob: KBZN 171956Z 00000KT 9SM -SN OVC060 01/M03 A2998 RMK AO2 SNB23 SLP184 P0000 T00111033
cycle: 20

Station Type Date Time Source
KBZN TAF 2021/01/17 18:39 UTC NOAA

TAF KBZN 171737Z 1718/1824 VRB06KT P6SM VCSH SCT030 BKN060
FM172100 28011G18KT P6SM VCSH SCT025 BKN050
TEMPO 1722/1801 3SM -SHSNRA BKN025
FM180100 28011KT P6SM VCSH SCT020 BKN040

Example: see airport list